Time;durP1;ratioP1;P1;durP2;ratioP2;P2;SDS_P1;SDS_P2;PMS_P1;PMS_P2;Temp;Humidity;BMP_temperature;BMP_pressure;BME280_temperature;BME280_humidity;BME280_pressure;Samples;Min_cycle;Max_cycle;Signal;HPM_P1;HPM_P2
2022/11/02 00:01:54;;;;;;;77.43;44.58;;;9.40;99.90;;;;;;4963242;28;20054;-79
2022/11/02 00:04:23;;;;;;;79.97;45.90;;;9.40;99.90;;;;;;4963915;28;20047;-79
2022/11/02 00:06:50;;;;;;;76.25;45.10;;;9.30;99.90;;;;;;4963042;28;20043;-79
2022/11/02 00:09:18;;;;;;;75.97;43.78;;;9.30;99.90;;;;;;4963132;28;20043;-80
2022/11/02 00:11:45;;;;;;;78.57;43.45;;;9.30;99.90;;;;;;4961930;28;20038;-80
2022/11/02 00:14:12;;;;;;;76.30;40.50;;;9.30;99.90;;;;;;4961655;28;20039;-81
2022/11/02 00:16:40;;;;;;;71.57;41.15;;;9.30;99.90;;;;;;4961001;28;20077;-80
2022/11/02 00:19:09;;;;;;;64.60;38.40;;;9.30;99.90;;;;;;4964677;28;20416;-79
2022/11/02 00:21:38;;;;;;;76.05;40.88;;;9.30;99.90;;;;;;4947522;28;20134;-79
2022/11/02 00:24:07;;;;;;;66.30;38.05;;;9.30;99.90;;;;;;4966129;28;20059;-79
2022/11/02 00:26:36;;;;;;;72.32;37.80;;;9.20;99.90;;;;;;4966149;28;20047;-80
2022/11/02 00:29:04;;;;;;;65.22;37.55;;;9.10;99.90;;;;;;4964704;28;20047;-80
2022/11/02 00:31:32;;;;;;;71.95;39.63;;;9.00;99.90;;;;;;4963383;28;20054;-79
2022/11/02 00:33:59;;;;;;;80.18;39.10;;;9.00;99.90;;;;;;4963245;28;20043;-79
2022/11/02 00:36:27;;;;;;;61.75;36.47;;;8.90;99.90;;;;;;4962146;28;20426;-79
2022/11/02 00:38:55;;;;;;;63.35;37.63;;;8.90;99.90;;;;;;4961560;28;20039;-79
2022/11/02 00:41:23;;;;;;;65.60;37.42;;;8.90;99.90;;;;;;4943633;28;20586;-80
2022/11/02 00:43:51;;;;;;;62.28;34.20;;;8.90;99.90;;;;;;4945757;28;20047;-80
2022/11/02 00:46:19;;;;;;;58.42;32.67;;;8.90;99.90;;;;;;4961514;28;20047;-79
2022/11/02 00:48:46;;;;;;;58.47;33.75;;;8.90;99.90;;;;;;4968664;28;20563;-79
2022/11/02 00:51:14;;;;;;;57.45;32.22;;;8.90;99.90;;;;;;4944025;28;20067;-79
2022/11/02 00:53:43;;;;;;;53.03;30.33;;;8.90;99.90;;;;;;4944040;28;20185;-79
2022/11/02 00:56:12;;;;;;;51.90;29.38;;;8.90;99.90;;;;;;4943608;28;20046;-79
2022/11/02 00:58:39;;;;;;;53.42;29.52;;;8.90;99.90;;;;;;4959220;28;20043;-79
2022/11/02 01:01:07;;;;;;;52.28;28.92;;;8.90;99.90;;;;;;4960317;28;20051;-79
2022/11/02 01:03:36;;;;;;;50.40;27.65;;;8.90;99.90;;;;;;4950050;28;20049;-79
2022/11/02 01:06:08;;;;;;;45.42;25.55;;;8.90;99.90;;;;;;4965612;28;20094;-79
2022/11/02 01:08:37;;;;;;;41.85;25.48;;;8.90;99.90;;;;;;4966641;28;20138;-79
2022/11/02 01:11:15;;;;;;;45.25;26.50;;;8.90;99.90;;;;;;4949253;28;20098;-79
2022/11/02 01:13:43;;;;;;;48.78;28.65;;;8.90;99.90;;;;;;4966142;28;20239;-79
2022/11/02 01:16:11;;;;;;;56.10;27.90;;;8.90;99.90;;;;;;4965765;28;20082;-79
2022/11/02 01:18:39;;;;;;;51.30;29.15;;;8.80;99.90;;;;;;4965090;28;20040;-79
2022/11/02 01:21:07;;;;;;;49.63;29.05;;;8.80;99.90;;;;;;4946522;28;20141;-79
2022/11/02 01:23:36;;;;;;;49.80;28.00;;;8.80;99.90;;;;;;4946405;28;20126;-79
2022/11/02 01:26:04;;;;;;;51.40;27.88;;;8.80;99.90;;;;;;4962551;28;20047;-79
2022/11/02 01:28:33;;;;;;;59.63;30.38;;;8.80;99.90;;;;;;4943703;28;20039;-79
2022/11/02 01:31:01;;;;;;;55.90;30.80;;;8.70;99.90;;;;;;4961879;28;20051;-79
2022/11/02 01:33:29;;;;;;;54.88;32.05;;;8.70;99.90;;;;;;4963229;28;20043;-79
2022/11/02 01:35:57;;;;;;;63.55;35.35;;;8.60;99.90;;;;;;4963332;28;20047;-79
2022/11/02 01:38:25;;;;;;;58.90;33.53;;;8.60;99.90;;;;;;4945577;28;20085;-79
2022/11/02 01:40:52;;;;;;;49.13;29.25;;;8.60;99.90;;;;;;4961735;28;20046;-79
2022/11/02 01:43:25;;;;;;;55.03;28.55;;;8.60;99.90;;;;;;4948738;28;20043;-79
2022/11/02 01:45:58;;;;;;;52.55;29.55;;;8.50;99.90;;;;;;4943447;28;20491;-79
2022/11/02 01:48:31;;;;;;;51.97;27.70;;;8.50;99.90;;;;;;4972472;28;20126;-78
2022/11/02 01:51:01;;;;;;;56.22;29.23;;;8.50;99.90;;;;;;4971298;28;20063;-78
2022/11/02 01:53:30;;;;;;;55.47;29.02;;;8.40;99.90;;;;;;4973042;28;20042;-78
2022/11/02 01:55:58;;;;;;;48.75;28.73;;;8.40;99.90;;;;;;4955306;28;20055;-77
2022/11/02 01:58:27;;;;;;;47.80;27.80;;;8.40;99.90;;;;;;4955077;28;20138;-79
2022/11/02 02:00:56;;;;;;;46.00;27.40;;;8.40;99.90;;;;;;4972454;28;20129;-78
2022/11/02 02:03:24;;;;;;;52.40;29.77;;;8.30;99.90;;;;;;4971099;28;20074;-78
2022/11/02 02:05:57;;;;;;;51.67;27.73;;;8.30;99.90;;;;;;4954665;28;20047;-78
2022/11/02 02:08:27;;;;;;;50.80;28.98;;;8.30;99.90;;;;;;4954353;28;20082;-78
2022/11/02 02:10:57;;;;;;;53.88;29.27;;;8.40;99.90;;;;;;4954661;28;20053;-78
2022/11/02 02:13:27;;;;;;;63.47;34.67;;;8.30;99.90;;;;;;4972079;28;20117;-77
2022/11/02 02:16:07;;;;;;;59.35;31.95;;;8.30;99.90;;;;;;4954249;28;20142;-78
2022/11/02 02:18:43;;;;;;;59.60;30.73;;;8.30;99.90;;;;;;4954797;28;20050;-77
2022/11/02 02:21:25;;;;;;;52.53;30.77;;;8.30;99.90;;;;;;4972126;28;20035;-78
2022/11/02 02:24:18;;;;;;;70.88;36.70;;;8.30;99.90;;;;;;4954953;28;20058;-78
2022/11/02 02:27:11;;;;;;;43.85;24.38;;;8.20;99.90;;;;;;4971906;28;20086;-77
2022/11/02 02:30:02;;;;;;;45.20;25.38;;;8.20;99.90;;;;;;4945161;28;20137;-80
2022/11/02 02:32:37;;;;;;;50.00;26.67;;;8.20;99.90;;;;;;4951866;28;20047;-79
2022/11/02 02:35:11;;;;;;;;;;;8.20;99.90;;;;;;4954815;28;20047;-79
2022/11/02 02:37:45;;;;;;;42.55;26.30;;;8.20;99.90;;;;;;4953998;28;20567;-79
2022/11/02 02:40:17;;;;;;;44.42;25.35;;;8.20;99.90;;;;;;4969804;28;20130;-79
2022/11/02 02:42:49;;;;;;;49.03;26.15;;;8.20;99.90;;;;;;4970958;28;20093;-79
2022/11/02 02:45:24;;;;;;;39.80;23.00;;;8.10;99.90;;;;;;4971537;28;20047;-79
2022/11/02 02:47:59;;;;;;;46.20;25.05;;;8.10;99.90;;;;;;4971199;28;20062;-79
2022/11/02 02:50:30;;;;;;;44.72;25.25;;;8.10;99.90;;;;;;4969133;28;20054;-79
2022/11/02 02:53:01;;;;;;;45.00;25.25;;;8.10;99.90;;;;;;4970673;28;20118;-79
2022/11/02 02:55:34;;;;;;;41.55;24.58;;;8.10;99.90;;;;;;4970267;28;20134;-79
2022/11/02 02:58:03;;;;;;;45.92;25.13;;;8.00;99.90;;;;;;4970016;28;20070;-79
2022/11/02 03:00:35;;;;;;;51.03;25.33;;;8.10;99.90;;;;;;4970620;28;20271;-79
2022/11/02 03:03:04;;;;;;;49.47;26.25;;;8.10;99.90;;;;;;4953863;28;20487;-79
2022/11/02 03:05:34;;;;;;;47.92;25.27;;;8.00;99.90;;;;;;4954052;28;20046;-79
2022/11/02 03:08:08;;;;;;;42.00;23.98;;;8.00;99.90;;;;;;4953944;28;20540;-79
2022/11/02 03:10:42;;;;;;;44.13;22.80;;;8.00;99.90;;;;;;4954000;28;20407;-79
2022/11/02 03:13:29;;;;;;;44.00;23.20;;;8.00;99.90;;;;;;4953714;28;20050;-79
2022/11/02 03:16:03;;;;;;;47.08;24.67;;;7.90;99.90;;;;;;4970726;28;20114;-79
2022/11/02 03:18:41;;;;;;;42.22;24.80;;;7.90;99.90;;;;;;4953745;28;20061;-79
2022/11/02 03:21:15;;;;;;;38.30;23.67;;;7.90;99.90;;;;;;4969206;28;20126;-79
2022/11/02 03:23:51;;;;;;;49.70;26.95;;;7.90;99.90;;;;;;4970658;28;20035;-79
2022/11/02 03:26:25;;;;;;;51.22;27.17;;;7.80;99.90;;;;;;4969567;28;20051;-79
2022/11/02 03:28:59;;;;;;;54.58;28.35;;;7.70;99.90;;;;;;4953602;28;20134;-79
2022/11/02 03:31:36;;;;;;;46.58;26.55;;;7.80;99.90;;;;;;4969921;28;20522;-78
2022/11/02 03:34:15;;;;;;;43.72;23.92;;;7.70;99.90;;;;;;4971193;28;20039;-79
2022/11/02 03:36:47;;;;;;;42.83;25.02;;;7.70;99.90;;;;;;4953859;28;20066;-79
2022/11/02 03:39:18;;;;;;;40.72;24.38;;;7.70;99.90;;;;;;4952888;28;20078;-77
2022/11/02 03:41:49;;;;;;;45.97;24.90;;;7.70;99.90;;;;;;4953037;28;20145;-78
2022/11/02 03:44:23;;;;;;;41.95;22.55;;;7.70;99.90;;;;;;4971072;28;20354;-78
2022/11/02 03:46:57;;;;;;;45.83;23.30;;;7.70;99.90;;;;;;4952831;28;20043;-78
2022/11/02 03:49:26;;;;;;;41.15;21.90;;;7.70;99.90;;;;;;4970634;28;20049;-79
2022/11/02 03:51:57;;;;;;;42.78;22.42;;;7.60;99.90;;;;;;4968936;28;20146;-78
2022/11/02 03:54:38;;;;;;;37.70;22.55;;;7.60;99.90;;;;;;4953300;28;20458;-78
2022/11/02 03:57:09;;;;;;;42.60;23.63;;;7.60;99.90;;;;;;4953396;28;20077;-78
2022/11/02 03:59:36;;;;;;;44.28;23.20;;;7.70;99.90;;;;;;4953211;28;20287;-78
2022/11/02 04:02:05;;;;;;;46.50;22.52;;;7.60;99.90;;;;;;4952714;28;20129;-77
2022/11/02 04:04:32;;;;;;;40.80;23.30;;;7.60;99.90;;;;;;4969109;28;20051;-79
2022/11/02 04:07:00;;;;;;;42.92;23.10;;;7.60;99.90;;;;;;4970810;28;20491;-79
2022/11/02 04:09:27;;;;;;;44.83;22.88;;;7.60;99.90;;;;;;4953116;28;20039;-79
2022/11/02 04:14:40;;;;;;;48.85;25.60;;;7.60;99.90;;;;;;4969768;28;20051;-79
2022/11/02 04:20:07;;;;;;;50.70;28.90;;;7.60;99.90;;;;;;4952816;28;20062;-79
2022/11/02 04:25:20;;;;;;;41.33;25.88;;;7.50;99.90;;;;;;4953433;28;20066;-79
2022/11/02 04:28:17;;;;;;;34.28;22.50;;;7.60;99.90;;;;;;4956950;28;20137;-79
2022/11/02 04:30:48;;;;;;;41.42;23.52;;;7.60;99.90;;;;;;4952655;28;20601;-79
2022/11/02 04:33:33;;;;;;;41.28;23.83;;;7.50;99.90;;;;;;4953071;28;20058;-79
2022/11/02 04:36:07;;;;;;;44.50;25.33;;;7.50;99.90;;;;;;4968982;28;20071;-79
2022/11/02 04:38:41;;;;;;;42.35;24.75;;;7.40;99.90;;;;;;4968000;28;20102;-79
2022/11/02 04:41:43;;;;;;;48.03;26.60;;;7.50;99.90;;;;;;4969323;28;20055;-79
2022/11/02 04:44:31;;;;;;;60.35;34.13;;;7.50;99.90;;;;;;4968893;28;20067;-79
2022/11/02 04:47:21;;;;;;;46.17;28.08;;;7.50;99.90;;;;;;4969749;28;20043;-79
2022/11/02 04:49:50;;;;;;;47.67;29.70;;;7.50;99.90;;;;;;4969675;28;20043;-79
2022/11/02 04:52:19;;;;;;;49.90;28.42;;;7.40;99.90;;;;;;4953149;28;20043;-79
2022/11/02 04:54:50;;;;;;;53.60;31.13;;;7.30;99.90;;;;;;4968565;28;20047;-79
2022/11/02 04:57:18;;;;;;;45.45;26.80;;;7.30;99.90;;;;;;4952942;28;20050;-79
2022/11/02 04:59:45;;;;;;;45.47;25.23;;;7.40;99.90;;;;;;4969361;28;20447;-79
2022/11/02 05:02:13;;;;;;;52.22;27.30;;;7.40;99.90;;;;;;4967836;28;20049;-79
2022/11/02 05:04:42;;;;;;;67.15;39.25;;;7.50;99.90;;;;;;4955950;28;20483;-79
2022/11/02 05:07:11;;;;;;;63.30;38.40;;;7.40;99.90;;;;;;4973863;28;20093;-79
2022/11/02 05:09:41;;;;;;;53.90;32.75;;;7.40;99.90;;;;;;4973913;28;20050;-79
2022/11/02 05:12:09;;;;;;;49.65;28.83;;;7.40;99.90;;;;;;4955133;28;20050;-79
2022/11/02 05:14:38;;;;;;;45.35;26.83;;;7.40;99.90;;;;;;4956368;28;20043;-79
2022/11/02 05:17:05;;;;;;;46.13;26.55;;;7.40;99.90;;;;;;4955672;28;20078;-79
2022/11/02 05:19:34;;;;;;;49.03;29.13;;;7.50;99.90;;;;;;4956081;28;20110;-79
2022/11/02 05:22:03;;;;;;;50.97;28.17;;;7.50;99.90;;;;;;4971480;28;20043;-79
2022/11/02 05:24:32;;;;;;;50.60;31.15;;;7.50;99.90;;;;;;4955675;28;20054;-79
2022/11/02 05:27:01;;;;;;;52.92;29.67;;;7.60;99.90;;;;;;4955852;28;20054;-79
2022/11/02 05:29:30;;;;;;;57.05;31.38;;;7.70;99.90;;;;;;4955612;28;20047;-79
2022/11/02 05:31:58;;;;;;;49.17;28.52;;;7.80;99.90;;;;;;4970657;28;20059;-79
2022/11/02 05:34:25;;;;;;;57.33;32.95;;;7.90;99.90;;;;;;4955588;28;20043;-80
2022/11/02 05:36:53;;;;;;;64.53;34.15;;;7.90;99.90;;;;;;4955755;28;20074;-78
2022/11/02 05:39:21;;;;;;;60.97;31.88;;;8.00;99.90;;;;;;4973063;28;20101;-78
2022/11/02 05:41:50;;;;;;;54.42;28.80;;;8.10;99.90;;;;;;4971906;28;20124;-78
2022/11/02 05:44:17;;;;;;;51.88;29.05;;;8.20;99.90;;;;;;4955121;28;20641;-78
2022/11/02 05:46:45;;;;;;;45.35;26.77;;;8.30;99.90;;;;;;4971181;28;20034;-78
2022/11/02 05:49:12;;;;;;;54.10;31.13;;;8.40;99.90;;;;;;4972763;28;20046;-78
2022/11/02 05:51:39;;;;;;;48.97;29.70;;;8.50;99.90;;;;;;4972369;28;20072;-78
2022/11/02 05:54:07;;;;;;;47.22;29.08;;;8.60;99.90;;;;;;4972389;28;20101;-78
2022/11/02 05:56:34;;;;;;;50.88;27.67;;;8.70;99.90;;;;;;4972750;28;20105;-79
2022/11/02 05:59:03;;;;;;;51.22;29.35;;;8.70;99.90;;;;;;4972993;28;20050;-78
2022/11/02 06:01:30;;;;;;;54.45;30.05;;;8.70;99.90;;;;;;4971963;28;20120;-78
2022/11/02 06:03:57;;;;;;;53.33;30.38;;;8.70;99.90;;;;;;4972403;28;20038;-78
2022/11/02 06:06:24;;;;;;;50.53;29.48;;;8.80;99.90;;;;;;4972320;28;20035;-78
2022/11/02 06:08:52;;;;;;;55.85;30.23;;;8.90;99.90;;;;;;4955103;28;20095;-79
2022/11/02 06:11:19;;;;;;;56.65;31.20;;;9.00;99.90;;;;;;4970622;28;20487;-78
2022/11/02 06:13:50;;;;;;;54.88;30.17;;;9.10;99.90;;;;;;4971095;28;20046;-77
2022/11/02 06:16:19;;;;;;;48.05;28.35;;;9.20;99.90;;;;;;4970860;28;20046;-78
2022/11/02 06:18:46;;;;;;;50.60;27.40;;;9.30;99.90;;;;;;4971655;28;20113;-78
2022/11/02 06:21:14;;;;;;;49.03;26.77;;;9.50;99.90;;;;;;4971705;28;20043;-77
2022/11/02 06:23:42;;;;;;;52.72;26.42;;;9.70;99.90;;;;;;4971263;28;20043;-77
2022/11/02 06:26:11;;;;;;;44.13;25.95;;;9.90;99.90;;;;;;4970903;28;20039;-77
2022/11/02 06:28:38;;;;;;;44.72;25.70;;;10.20;99.90;;;;;;4971612;28;20062;-77
2022/11/02 06:31:06;;;;;;;55.42;29.13;;;10.40;99.90;;;;;;4953170;28;20463;-78
2022/11/02 06:33:35;;;;;;;57.40;30.05;;;10.60;99.90;;;;;;4972170;28;20456;-78
2022/11/02 06:36:04;;;;;;;51.08;26.75;;;11.00;99.90;;;;;;4971087;28;20066;-78
2022/11/02 06:38:32;;;;;;;47.85;27.05;;;11.20;99.90;;;;;;4968421;28;20546;-77
2022/11/02 06:41:01;;;;;;;47.35;27.05;;;11.30;99.90;;;;;;4970736;28;20121;-78
2022/11/02 06:43:28;;;;;;;47.55;26.73;;;11.40;99.90;;;;;;4971003;28;20054;-78
2022/11/02 06:45:55;;;;;;;50.33;29.15;;;11.40;99.90;;;;;;4971559;28;20053;-77
2022/11/02 06:48:23;;;;;;;47.80;28.52;;;11.40;99.90;;;;;;4970206;28;20042;-78
2022/11/02 06:50:52;;;;;;;47.75;26.00;;;11.40;99.90;;;;;;4970337;28;20043;-77
2022/11/02 06:53:19;;;;;;;41.38;21.40;;;11.40;99.90;;;;;;4971154;28;20047;-77
2022/11/02 06:55:51;;;;;;;61.35;24.70;;;11.40;99.90;;;;;;4971041;28;20053;-77
2022/11/02 06:58:19;;;;;;;45.65;23.77;;;11.50;99.90;;;;;;4970369;28;20206;-77
2022/11/02 07:00:46;;;;;;;43.15;22.65;;;11.40;99.90;;;;;;4970802;28;20414;-77
2022/11/02 07:03:13;;;;;;;43.50;24.38;;;11.50;99.90;;;;;;4969073;28;20035;-77
2022/11/02 07:05:40;;;;;;;44.20;23.45;;;11.70;99.90;;;;;;4971308;28;20484;-77
2022/11/02 07:08:09;;;;;;;45.95;25.02;;;11.70;99.90;;;;;;4971212;28;20483;-77
2022/11/02 07:10:37;;;;;;;41.30;24.33;;;11.80;99.90;;;;;;4970268;28;20398;-78
2022/11/02 07:13:04;;;;;;;41.38;23.13;;;11.90;99.90;;;;;;4969846;28;20090;-78
2022/11/02 07:15:31;;;;;;;49.67;25.02;;;12.10;99.90;;;;;;4970271;28;20038;-78
2022/11/02 07:17:59;;;;;;;42.28;26.45;;;12.20;99.90;;;;;;4969468;28;20055;-78
2022/11/02 07:20:26;;;;;;;47.38;28.08;;;12.40;99.90;;;;;;4970530;28;20055;-77
2022/11/02 07:22:54;;;;;;;48.20;27.00;;;12.50;99.90;;;;;;4970993;28;20482;-78
2022/11/02 07:25:24;;;;;;;49.33;26.55;;;12.70;99.90;;;;;;4970095;28;20236;-77
2022/11/02 07:27:51;;;;;;;51.28;26.83;;;12.80;99.90;;;;;;4970818;28;20051;-78
2022/11/02 07:30:19;;;;;;;53.25;26.92;;;12.90;99.90;;;;;;4970251;28;20486;-78
2022/11/02 07:32:46;;;;;;;66.25;34.55;;;13.00;99.90;;;;;;4969979;28;20138;-78
2022/11/02 07:35:16;;;;;;;58.75;32.83;;;13.10;99.90;;;;;;4970903;28;20069;-77
2022/11/02 07:37:43;;;;;;;59.17;34.95;;;13.20;99.90;;;;;;4970654;28;20059;-78
2022/11/02 07:40:13;;;;;;;59.42;32.58;;;13.20;99.90;;;;;;4970468;28;20046;-77
2022/11/02 07:42:45;;;;;;;61.47;34.83;;;13.40;99.90;;;;;;4970566;28;20049;-77
2022/11/02 07:45:13;;;;;;;57.00;32.83;;;13.50;99.90;;;;;;4970749;28;20391;-77
2022/11/02 07:47:43;;;;;;;57.92;32.08;;;13.70;99.90;;;;;;4969492;28;20039;-77
2022/11/02 07:50:11;;;;;;;61.00;29.13;;;13.80;99.90;;;;;;4970044;28;20097;-77
2022/11/02 07:52:44;;;;;;;47.42;28.80;;;13.90;99.90;;;;;;4970515;28;20068;-76
2022/11/02 07:55:12;;;;;;;55.88;27.95;;;14.10;99.90;;;;;;4970196;28;20078;-77
2022/11/02 07:57:40;;;;;;;57.38;28.05;;;14.20;99.90;;;;;;4969155;28;20495;-77
2022/11/02 08:00:11;;;;;;;47.85;26.90;;;14.30;99.90;;;;;;4970124;28;20046;-78
2022/11/02 08:02:39;;;;;;;48.95;26.08;;;14.30;99.90;;;;;;4969898;28;20109;-78
2022/11/02 08:05:06;;;;;;;51.58;26.95;;;14.40;99.90;;;;;;4970416;28;20330;-78
2022/11/02 08:07:33;;;;;;;67.80;29.05;;;14.50;99.90;;;;;;4970289;28;20043;-78
2022/11/02 08:10:01;;;;;;;56.28;28.73;;;14.50;99.90;;;;;;4969158;28;20050;-77
2022/11/02 08:12:28;;;;;;;58.30;28.77;;;14.60;99.90;;;;;;4968130;28;20038;-77
2022/11/02 08:14:56;;;;;;;56.67;28.45;;;14.50;99.90;;;;;;4969742;28;20062;-78
2022/11/02 08:17:25;;;;;;;46.75;26.92;;;14.60;99.90;;;;;;4952787;28;20043;-78
2022/11/02 08:19:52;;;;;;;47.83;25.20;;;14.60;99.90;;;;;;4969726;28;20043;-78
2022/11/02 08:22:19;;;;;;;48.53;25.27;;;14.70;99.90;;;;;;4969544;28;20047;-78
2022/11/02 08:24:47;;;;;;;54.78;27.23;;;14.90;99.90;;;;;;4970034;28;20050;-78
2022/11/02 08:27:14;;;;;;;51.03;26.63;;;15.10;99.90;;;;;;4952948;28;20479;-76
2022/11/02 08:29:41;;;;;;;60.55;29.55;;;15.20;99.90;;;;;;4969986;28;20050;-76
2022/11/02 08:32:08;;;;;;;65.28;32.70;;;15.20;99.90;;;;;;4969718;28;20061;-79
2022/11/02 08:34:37;;;;;;;76.20;41.75;;;15.20;99.90;;;;;;4952747;28;20061;-77
2022/11/02 08:37:06;;;;;;;64.07;34.67;;;15.20;99.90;;;;;;4970198;28;20039;-78
2022/11/02 08:39:33;;;;;;;70.97;37.45;;;15.30;99.90;;;;;;4972695;28;20042;-76
2022/11/02 08:42:01;;;;;;;65.68;36.47;;;15.40;99.90;;;;;;4955706;28;20141;-78
2022/11/02 08:44:28;;;;;;;75.63;41.13;;;15.50;99.90;;;;;;4956572;28;20137;-77
2022/11/02 08:46:56;;;;;;;76.82;42.70;;;15.60;99.90;;;;;;4974193;28;20564;-76
2022/11/02 08:49:23;;;;;;;63.83;36.60;;;15.70;99.90;;;;;;4973303;28;20197;-74
2022/11/02 08:51:51;;;;;;;66.75;36.42;;;15.80;99.90;;;;;;4973455;28;20047;-91
2022/11/02 08:54:20;;;;;;;63.17;33.15;;;15.90;99.90;;;;;;4983206;23;20047;-75
2022/11/02 08:56:47;;;;;;;52.80;32.22;;;16.00;99.90;;;;;;4954218;29;20050;-74
2022/11/02 08:59:14;;;;;;;63.95;31.60;;;16.00;99.90;;;;;;4954944;29;20511;-74
2022/11/02 09:01:42;;;;;;;57.83;30.50;;;16.10;99.90;;;;;;4953931;29;20609;-75
2022/11/02 09:04:10;;;;;;;53.47;31.17;;;16.10;99.90;;;;;;4936946;29;20039;-75
2022/11/02 09:06:37;;;;;;;54.25;31.40;;;16.00;99.90;;;;;;4936745;29;20047;-75
2022/11/02 09:09:07;;;;;;;61.83;33.60;;;15.90;99.90;;;;;;4936049;29;20123;-75
2022/11/02 09:11:34;;;;;;;66.85;35.60;;;15.80;99.90;;;;;;4934709;29;20040;-76
2022/11/02 09:14:02;;;;;;;68.43;40.58;;;15.80;99.90;;;;;;4935563;29;20059;-79
2022/11/02 09:16:29;;;;;;;69.65;42.22;;;15.70;99.90;;;;;;4917710;29;20431;-75
2022/11/02 09:18:57;;;;;;;82.75;45.92;;;15.60;99.90;;;;;;4935995;29;20066;-74
2022/11/02 09:21:25;;;;;;;89.90;46.17;;;15.60;99.90;;;;;;4933235;29;20074;-77
2022/11/02 09:23:52;;;;;;;84.90;46.20;;;15.50;99.90;;;;;;4935391;29;20067;-77
2022/11/02 09:26:20;;;;;;;80.35;44.35;;;15.60;99.90;;;;;;4936080;29;20044;-79
2022/11/02 09:28:48;;;;;;;68.32;40.05;;;15.60;99.90;;;;;;4934672;29;20044;-77
2022/11/02 09:31:15;;;;;;;66.00;38.20;;;15.80;99.90;;;;;;4936315;29;20055;-75
2022/11/02 09:33:42;;;;;;;67.00;35.92;;;15.90;99.90;;;;;;4936025;29;20040;-75
2022/11/02 09:36:10;;;;;;;55.25;29.20;;;16.00;99.90;;;;;;4934982;29;20144;-74
2022/11/02 09:38:37;;;;;;;58.45;31.17;;;16.20;99.90;;;;;;4935527;29;20071;-75
2022/11/02 09:41:13;;;;;;;65.72;35.90;;;16.30;99.90;;;;;;4934159;29;20048;-79
2022/11/02 09:43:56;;;;;;;72.18;43.45;;;16.30;99.90;;;;;;4929707;29;20047;-75
2022/11/02 09:46:28;;;;;;;72.93;39.22;;;16.40;99.90;;;;;;4949844;29;20079;-79
2022/11/02 09:48:59;;;;;;;81.15;44.97;;;16.50;99.90;;;;;;4946768;29;20051;-78
2022/11/02 09:51:31;;;;;;;71.50;42.22;;;16.50;99.90;;;;;;4933794;29;20131;-77
2022/11/02 09:54:05;;;;;;;81.57;44.78;;;16.70;99.90;;;;;;4928154;29;20401;-77
2022/11/02 09:56:33;;;;;;;80.18;45.08;;;16.80;99.90;;;;;;4929830;29;20062;-77
2022/11/02 09:59:05;;;;;;;74.00;41.97;;;17.00;99.90;;;;;;4929290;29;20043;-78
2022/11/02 10:01:45;;;;;;;64.25;38.20;;;17.10;99.90;;;;;;4925419;29;20044;-78
2022/11/02 10:04:43;;;;;;;72.90;37.53;;;17.30;99.90;;;;;;4937657;29;20083;-77
2022/11/02 10:07:21;;;;;;;63.33;30.38;;;17.40;99.90;;;;;;4954157;28;20134;-77
2022/11/02 10:09:54;;;;;;;89.18;37.60;;;17.50;99.90;;;;;;4917914;29;20066;-74
2022/11/02 10:12:28;;;;;;;57.60;32.75;;;17.60;99.90;;;;;;4927650;29;20091;-75
2022/11/02 10:15:05;;;;;;;59.00;34.03;;;17.80;99.90;;;;;;4933379;29;20075;-74
2022/11/02 10:17:36;;;;;;;66.80;37.95;;;17.90;99.90;;;;;;4945921;29;20052;-76
2022/11/02 10:20:07;;;;;;;62.22;33.47;;;18.00;99.90;;;;;;4935502;29;20066;-75
2022/11/02 10:22:40;;;;;;;59.90;33.05;;;18.10;99.90;;;;;;4926462;29;20108;-77
2022/11/02 10:25:11;;;;;;;46.97;28.38;;;18.20;99.90;;;;;;4925170;29;20035;-78
2022/11/02 10:27:39;;;;;;;52.03;25.83;;;18.40;97.60;;;;;;4927137;29;20108;-76
2022/11/02 10:30:13;;;;;;;44.25;25.40;;;18.70;94.70;;;;;;4926964;29;20040;-78
2022/11/02 10:32:43;;;;;;;61.00;28.60;;;18.90;93.50;;;;;;4927737;29;20075;-74
2022/11/02 10:35:18;;;;;;;45.75;25.40;;;19.10;92.50;;;;;;4928427;29;20036;-76
2022/11/02 10:38:00;;;;;;;53.28;28.88;;;19.30;91.30;;;;;;4929650;29;20086;-76
2022/11/02 10:40:49;;;;;;;48.40;28.85;;;19.50;90.50;;;;;;4929033;29;20492;-76
2022/11/02 10:43:28;;;;;;;45.78;25.08;;;19.70;89.90;;;;;;4928258;29;20399;-75
2022/11/02 10:46:23;;;;;;;56.95;28.13;;;19.70;87.80;;;;;;4943446;29;20044;-75
2022/11/02 10:49:00;;;;;;;45.55;24.90;;;19.80;86.80;;;;;;4943382;29;20111;-79
2022/11/02 10:51:29;;;;;;;40.88;22.15;;;19.90;86.10;;;;;;4934662;29;20060;-76
2022/11/02 10:53:57;;;;;;;42.03;25.10;;;19.90;85.20;;;;;;4930758;29;20130;-85
2022/11/02 11:21:35;;;;;;;25.60;14.68;;;20.40;74.90;;;;;;4946851;28;20056;-75
2022/11/02 11:24:23;;;;;;;34.72;14.73;;;20.60;74.30;;;;;;4929430;29;20120;-77
2022/11/02 11:27:05;;;;;;;28.73;17.23;;;20.60;74.20;;;;;;4927190;29;20083;-75
2022/11/02 11:29:37;;;;;;;21.98;14.35;;;20.80;73.20;;;;;;4907388;29;20044;-75
2022/11/02 11:32:13;;;;;;;31.27;17.50;;;20.90;73.00;;;;;;4902400;29;20131;-74
2022/11/02 11:34:40;;;;;;;27.58;16.45;;;21.10;72.40;;;;;;4903958;29;20079;-73
2022/11/02 11:37:11;;;;;;;24.90;15.55;;;21.20;71.10;;;;;;4908560;29;20066;-78
2022/11/02 11:39:42;;;;;;;31.00;16.13;;;21.40;71.00;;;;;;4904312;29;20400;-75
2022/11/02 11:42:18;;;;;;;30.83;17.15;;;21.40;70.90;;;;;;4903804;29;20049;-76
2022/11/02 11:44:51;;;;;;;29.02;16.60;;;21.40;71.20;;;;;;4904159;29;20510;-78
2022/11/02 11:47:25;;;;;;;39.28;19.73;;;21.50;71.20;;;;;;4884857;29;20056;-79
2022/11/02 11:49:54;;;;;;;36.13;19.85;;;21.50;71.50;;;;;;4903224;29;20052;-74
2022/11/02 11:52:25;;;;;;;35.38;18.50;;;21.50;71.60;;;;;;4883496;29;20056;-77
2022/11/02 11:54:56;;;;;;;40.05;21.70;;;21.30;71.60;;;;;;4899481;29;20040;-77
2022/11/02 11:57:28;;;;;;;37.50;23.85;;;21.30;72.10;;;;;;4901434;29;20048;-75
2022/11/02 12:00:27;;;;;;;50.37;27.93;;;21.20;72.50;;;;;;4919372;29;20123;-77
2022/11/02 12:03:20;;;;;;;37.42;20.60;;;21.10;72.80;;;;;;4929456;29;20097;-77
2022/11/02 12:06:23;;;;;;;28.92;15.60;;;21.10;71.90;;;;;;4900453;29;20051;-76
2022/11/02 12:09:01;;;;;;;22.80;14.50;;;21.00;68.60;;;;;;4906460;29;20044;-77
2022/11/02 12:11:43;;;;;;;25.92;12.07;;;20.90;65.40;;;;;;4911579;29;20131;-82
2022/11/02 12:14:31;;;;;;;28.50;12.68;;;20.90;64.40;;;;;;4866255;29;20051;-75
2022/11/02 12:17:20;;;;;;;20.98;12.10;;;20.80;64.80;;;;;;4902593;29;20045;-78
2022/11/02 12:20:03;;;;;;;23.52;14.80;;;20.80;65.80;;;;;;4892801;29;20486;-76
2022/11/02 12:22:41;;;;;;;23.40;14.75;;;20.80;66.50;;;;;;4903195;29;20057;-73
2022/11/02 12:25:40;;;;;;;28.10;15.90;;;20.80;67.10;;;;;;4876311;29;20049;-83
2022/11/02 12:28:25;;;;;;;29.08;15.98;;;20.90;67.50;;;;;;4894962;29;20047;-75
2022/11/02 12:31:02;;;;;;;29.15;16.58;;;21.00;68.10;;;;;;4904383;29;20530;-76
2022/11/02 12:33:58;;;;;;;22.33;13.18;;;21.00;67.20;;;;;;4905492;29;20055;-76
2022/11/02 12:36:36;;;;;;;25.20;14.20;;;21.00;64.40;;;;;;4903556;29;20068;-75
2022/11/02 12:39:08;;;;;;;32.65;14.45;;;21.10;63.70;;;;;;4906621;29;20051;-76
2022/11/02 12:41:50;;;;;;;26.40;14.68;;;21.20;64.00;;;;;;4905432;29;20044;-75
2022/11/02 12:44:52;;;;;;;31.75;17.52;;;21.30;63.50;;;;;;4902051;29;20047;-75
2022/11/02 12:47:29;;;;;;;29.73;17.92;;;21.40;64.50;;;;;;4860246;29;20084;-75
2022/11/02 12:50:08;;;;;;;30.02;18.15;;;21.50;65.80;;;;;;4902502;29;20052;-75
2022/11/02 12:52:48;;;;;;;32.72;17.90;;;21.50;65.20;;;;;;4882897;29;20059;-77
2022/11/02 12:55:19;;;;;;;38.60;19.38;;;21.40;65.00;;;;;;4915653;29;20091;-76
2022/11/02 12:57:48;;;;;;;33.97;21.88;;;21.50;65.00;;;;;;4915450;29;20052;-80
2022/11/02 13:00:20;;;;;;;35.58;22.02;;;21.40;65.20;;;;;;4910407;29;20087;-82
2022/11/02 13:02:57;;;;;;;38.15;23.05;;;21.40;65.40;;;;;;4893110;29;20083;-82
2022/11/02 13:05:30;;;;;;;27.75;18.08;;;21.40;65.60;;;;;;4901377;29;20124;-79
2022/11/02 13:08:06;;;;;;;27.55;17.10;;;21.30;64.80;;;;;;4900763;29;20539;-82
2022/11/02 13:10:36;;;;;;;26.73;16.55;;;21.20;64.50;;;;;;4874732;29;20049;-82
2022/11/02 13:13:04;;;;;;;30.02;17.85;;;21.10;63.80;;;;;;4896831;29;20044;-79
2022/11/02 13:15:37;;;;;;;24.20;14.93;;;21.10;63.90;;;;;;4897025;29;20048;-82
2022/11/02 13:18:11;;;;;;;24.48;13.68;;;21.10;63.00;;;;;;4899220;29;20104;-81
2022/11/02 13:20:43;;;;;;;24.85;14.45;;;21.10;63.60;;;;;;4897224;29;20041;-83
2022/11/02 13:23:19;;;;;;;25.42;13.15;;;21.00;63.00;;;;;;4897189;29;20049;-81
2022/11/02 13:25:51;;;;;;;22.42;13.30;;;21.00;62.10;;;;;;4905363;29;20040;-84
2022/11/02 13:28:30;;;;;;;28.52;14.05;;;21.00;61.80;;;;;;4900442;29;20077;-80
2022/11/02 13:30:59;;;;;;;20.23;10.95;;;20.90;61.40;;;;;;4897448;29;20062;-83